createdAt,value
2022-09-11T00:02:23.288Z,21.65
2022-09-11T00:04:50.999Z,21.45
2022-09-11T00:07:18.207Z,21.44
2022-09-11T00:09:45.418Z,21.45
2022-09-11T00:12:12.853Z,21.40
2022-09-11T00:14:40.755Z,21.40
2022-09-11T00:17:07.915Z,21.15
2022-09-11T00:19:36.362Z,21.21
2022-09-11T00:22:03.563Z,21.26
2022-09-11T00:24:30.801Z,21.24
2022-09-11T00:26:58.269Z,21.15
2022-09-11T00:29:25.597Z,21.20
2022-09-11T00:31:52.917Z,21.05
2022-09-11T00:34:20.430Z,21.22
2022-09-11T00:36:48.401Z,20.80
2022-09-11T00:39:15.740Z,20.63
2022-09-11T00:41:44.808Z,20.72
2022-09-11T00:44:12.460Z,20.83
2022-09-11T00:46:49.208Z,20.92
2022-09-11T00:49:30.580Z,20.72
2022-09-11T00:51:58.601Z,20.36
2022-09-11T00:54:31.070Z,20.69
2022-09-11T00:56:58.851Z,20.67
2022-09-11T00:59:27.040Z,20.52
2022-09-11T01:01:54.321Z,20.66
2022-09-11T01:04:21.921Z,20.37
2022-09-11T01:06:56.575Z,20.53
2022-09-11T01:09:24.750Z,20.73
2022-09-11T01:11:58.553Z,20.76
2022-09-11T01:14:33.681Z,20.68
2022-09-11T01:17:20.653Z,20.65
2022-09-11T01:20:06.677Z,20.23
2022-09-11T01:22:49.995Z,20.37
2022-09-11T01:25:28.371Z,20.41
2022-09-11T01:28:00.863Z,20.37
2022-09-11T01:30:29.204Z,20.53
2022-09-11T01:33:00.661Z,20.38
2022-09-11T01:35:31.705Z,20.52
2022-09-11T01:38:07.050Z,20.51
2022-09-11T01:40:40.727Z,20.39
2022-09-11T01:43:13.842Z,20.50
2022-09-11T01:45:45.515Z,20.34
2022-09-11T01:48:13.926Z,20.04
2022-09-11T01:50:41.165Z,19.90
2022-09-11T01:53:09.739Z,19.95
2022-09-11T01:55:38.735Z,20.23
2022-09-11T01:58:08.103Z,20.11
2022-09-11T02:00:36.760Z,19.76
2022-09-11T02:03:08.577Z,19.98
2022-09-11T02:05:44.058Z,19.55
2022-09-11T02:08:17.153Z,19.38
2022-09-11T02:10:51.993Z,19.12
2022-09-11T02:13:19.459Z,19.40
2022-09-11T02:15:48.957Z,19.35
2022-09-11T02:18:27.001Z,19.18
2022-09-11T02:20:54.529Z,19.52
2022-09-11T02:23:21.774Z,19.74
2022-09-11T02:25:52.634Z,19.22
2022-09-11T02:28:20.120Z,19.51
2022-09-11T02:30:47.414Z,19.36
2022-09-11T02:33:31.553Z,19.67
2022-09-11T02:36:03.552Z,19.46
2022-09-11T02:38:33.803Z,19.25
2022-09-11T02:41:20.625Z,19.43
2022-09-11T02:43:55.509Z,19.71
2022-09-11T02:46:41.883Z,19.69
2022-09-11T02:49:10.531Z,19.82
2022-09-11T02:51:39.103Z,19.97
2022-09-11T02:54:11.964Z,19.79
2022-09-11T02:56:41.347Z,19.81
2022-09-11T02:59:29.021Z,19.81
2022-09-11T03:01:59.105Z,19.73
2022-09-11T03:04:26.500Z,19.76
2022-09-11T03:06:53.979Z,18.92
2022-09-11T03:09:21.484Z,19.35
2022-09-11T03:11:50.171Z,19.35
2022-09-11T03:14:17.600Z,19.68
2022-09-11T03:16:45.667Z,19.80
2022-09-11T03:19:13.392Z,19.54
2022-09-11T03:21:40.617Z,19.53
2022-09-11T03:24:09.809Z,19.80
2022-09-11T03:26:37.208Z,19.80
2022-09-11T03:29:04.705Z,19.74
2022-09-11T03:31:34.470Z,19.73
2022-09-11T03:34:04.638Z,19.29
2022-09-11T03:36:34.377Z,19.37
2022-09-11T03:39:02.030Z,19.57
2022-09-11T03:41:30.373Z,19.76
2022-09-11T03:43:57.841Z,19.24
2022-09-11T03:46:25.639Z,19.62
2022-09-11T03:48:53.341Z,19.70
2022-09-11T03:51:21.214Z,19.56
2022-09-11T03:53:48.439Z,19.92
2022-09-11T03:56:16.104Z,19.63
2022-09-11T03:58:44.722Z,19.71
2022-09-11T04:01:13.325Z,19.52
2022-09-11T04:03:41.575Z,19.06
2022-09-11T04:06:10.189Z,19.07
2022-09-11T04:08:39.245Z,19.08
2022-09-11T04:11:06.903Z,19.08
2022-09-11T04:13:36.425Z,19.30
2022-09-11T04:16:08.272Z,19.57
2022-09-11T04:18:37.818Z,19.82
2022-09-11T04:21:05.566Z,19.87
2022-09-11T04:23:34.085Z,19.75
2022-09-11T04:26:01.693Z,19.80
2022-09-11T04:28:29.528Z,20.05
2022-09-11T04:30:57.486Z,20.09
2022-09-11T04:33:25.101Z,20.14
2022-09-11T04:35:52.422Z,20.11
2022-09-11T04:38:21.370Z,20.12
2022-09-11T04:40:49.422Z,20.25
2022-09-11T04:43:17.805Z,20.33
2022-09-11T04:45:45.165Z,20.20
2022-09-11T04:48:13.270Z,20.34
2022-09-11T04:50:41.333Z,20.31
2022-09-11T04:53:09.677Z,20.32
2022-09-11T04:55:37.312Z,20.29
2022-09-11T04:58:05.651Z,20.36
2022-09-11T05:00:33.817Z,20.40
2022-09-11T05:03:01.957Z,20.42
2022-09-11T05:05:29.600Z,20.48
2022-09-11T05:07:56.960Z,20.31
2022-09-11T05:10:27.221Z,20.49
2022-09-11T05:12:54.638Z,20.57
2022-09-11T05:15:21.943Z,20.67
2022-09-11T05:17:50.782Z,20.58
2022-09-11T05:20:18.810Z,20.66
2022-09-11T05:22:47.099Z,20.74
2022-09-11T05:25:14.650Z,20.78
2022-09-11T05:27:41.872Z,20.91
2022-09-11T05:30:09.432Z,20.94
2022-09-11T05:32:37.744Z,21.01
2022-09-11T05:35:05.350Z,21.07
2022-09-11T05:37:32.677Z,21.15
2022-09-11T05:40:00.601Z,21.16
2022-09-11T05:42:28.669Z,21.24
2022-09-11T05:44:56.213Z,21.20
2022-09-11T05:47:24.802Z,21.26
2022-09-11T05:49:52.505Z,21.21
2022-09-11T05:52:20.461Z,21.34
2022-09-11T05:54:48.026Z,20.84
2022-09-11T05:57:15.421Z,21.26
2022-09-11T05:59:43.103Z,21.20
2022-09-11T06:02:11.104Z,20.94
2022-09-11T06:04:38.929Z,21.17
2022-09-11T06:07:06.614Z,20.85
2022-09-11T06:09:34.819Z,21.26
2022-09-11T06:12:02.520Z,21.28
2022-09-11T06:14:29.864Z,21.16
2022-09-11T06:16:57.322Z,21.20
2022-09-11T06:19:25.496Z,20.96
2022-09-11T06:21:52.850Z,21.36
2022-09-11T06:24:21.043Z,21.45
2022-09-11T06:26:49.887Z,20.85
2022-09-11T06:29:17.601Z,20.65
2022-09-11T06:31:45.992Z,20.28
2022-09-11T06:34:14.004Z,20.83
2022-09-11T06:36:45.167Z,20.63
2022-09-11T06:39:14.323Z,20.62
2022-09-11T06:41:42.140Z,20.43
2022-09-11T06:44:09.991Z,20.40
2022-09-11T06:46:37.716Z,20.58
2022-09-11T06:49:06.478Z,20.45
2022-09-11T06:51:47.976Z,20.22
2022-09-11T06:54:16.173Z,20.12
2022-09-11T06:56:45.222Z,20.35
2022-09-11T06:59:14.506Z,20.50
2022-09-11T07:01:44.509Z,20.90
2022-09-11T07:04:12.218Z,20.82
2022-09-11T07:06:39.581Z,20.82
2022-09-11T07:09:07.072Z,20.45
2022-09-11T07:11:34.844Z,20.38
2022-09-11T07:14:05.767Z,20.59
2022-09-11T07:16:34.080Z,20.47
2022-09-11T07:19:07.633Z,20.52
2022-09-11T07:21:35.570Z,20.45
2022-09-11T07:24:03.998Z,20.98
2022-09-11T07:26:32.701Z,20.70
2022-09-11T07:29:00.628Z,20.86
2022-09-11T07:31:32.804Z,21.20
2022-09-11T07:34:00.331Z,20.90
2022-09-11T07:36:32.684Z,21.21
2022-09-11T07:39:00.307Z,21.70
2022-09-11T07:41:29.387Z,21.05
2022-09-11T07:43:59.794Z,20.80
2022-09-11T07:46:27.814Z,21.06
2022-09-11T07:48:55.465Z,21.74
2022-09-11T07:51:23.149Z,21.87
2022-09-11T07:53:51.454Z,21.85
2022-09-11T07:56:20.088Z,21.63
2022-09-11T07:58:48.037Z,21.81
2022-09-11T08:01:17.311Z,21.32
2022-09-11T08:03:45.632Z,21.94
2022-09-11T08:06:17.839Z,21.62
2022-09-11T08:08:51.891Z,21.81
2022-09-11T08:11:19.768Z,21.27
2022-09-11T08:13:53.734Z,21.82
2022-09-11T08:16:22.674Z,21.80
2022-09-11T08:18:52.107Z,22.29
2022-09-11T08:21:19.503Z,22.22
2022-09-11T08:23:47.111Z,22.35
2022-09-11T08:26:21.888Z,22.38
2022-09-11T08:28:52.195Z,21.91
2022-09-11T08:31:20.569Z,22.16
2022-09-11T08:33:49.375Z,22.02
2022-09-11T08:36:17.187Z,21.81
2022-09-11T08:38:46.023Z,22.09
2022-09-11T08:41:28.133Z,21.79
2022-09-11T08:43:56.858Z,22.26
2022-09-11T08:46:25.351Z,22.28
2022-09-11T08:49:02.325Z,22.66
2022-09-11T08:51:31.516Z,22.59
2022-09-11T08:53:59.044Z,22.00
2022-09-11T08:56:28.638Z,21.50
2022-09-11T08:59:02.601Z,21.91
2022-09-11T09:01:50.217Z,21.58
2022-09-11T09:04:39.317Z,21.65
2022-09-11T09:07:10.208Z,21.50
2022-09-11T09:09:41.063Z,22.33
2022-09-11T09:12:21.029Z,22.28
2022-09-11T09:15:00.936Z,22.42
2022-09-11T09:17:45.424Z,22.55
2022-09-11T09:20:13.741Z,22.36
2022-09-11T09:22:49.061Z,22.22
2022-09-11T09:25:17.903Z,22.78
2022-09-11T09:27:46.570Z,23.04
2022-09-11T09:30:18.643Z,23.25
2022-09-11T09:32:51.935Z,23.24
2022-09-11T09:35:23.402Z,22.67
2022-09-11T09:37:51.639Z,23.06
2022-09-11T09:40:19.151Z,22.46
2022-09-11T09:42:47.507Z,22.58
2022-09-11T09:45:24.889Z,22.13
2022-09-11T09:47:52.136Z,22.20
2022-09-11T09:50:20.739Z,22.56
2022-09-11T09:52:48.945Z,22.70
2022-09-11T09:55:17.689Z,22.78
2022-09-11T09:57:45.262Z,22.06
2022-09-11T10:00:17.924Z,22.55
2022-09-11T10:02:49.110Z,22.78
2022-09-11T10:05:18.215Z,23.20
2022-09-11T10:07:49.495Z,23.24
2022-09-11T10:10:21.544Z,23.30
2022-09-11T10:12:49.113Z,23.30
2022-09-11T10:15:22.866Z,23.37
2022-09-11T10:17:53.447Z,22.67
2022-09-11T10:20:26.757Z,23.06
2022-09-11T10:22:54.796Z,22.96
2022-09-11T10:25:23.089Z,23.17
2022-09-11T10:27:56.285Z,22.74
2022-09-11T10:30:27.916Z,22.71
2022-09-11T10:32:55.729Z,22.21
2022-09-11T10:35:27.090Z,22.57
2022-09-11T10:38:01.193Z,22.99
2022-09-11T10:40:28.961Z,22.63
2022-09-11T10:42:56.291Z,22.38
2022-09-11T10:45:23.614Z,22.54
2022-09-11T10:47:51.143Z,22.65
2022-09-11T10:50:18.563Z,22.94
2022-09-11T10:52:48.915Z,22.82
2022-09-11T10:55:17.545Z,22.96
2022-09-11T10:57:50.340Z,23.10
2022-09-11T11:00:17.822Z,23.69
2022-09-11T11:02:46.067Z,23.19
2022-09-11T11:05:27.089Z,23.38
2022-09-11T11:08:07.601Z,23.38
2022-09-11T11:10:47.161Z,23.43
2022-09-11T11:13:15.676Z,23.56
2022-09-11T11:15:57.634Z,23.75
2022-09-11T11:18:38.803Z,23.78
2022-09-11T11:21:12.965Z,23.88
2022-09-11T11:24:06.784Z,23.86
2022-09-11T11:26:43.256Z,24.28
2022-09-11T11:29:22.934Z,23.52
2022-09-11T11:31:51.297Z,23.81
2022-09-11T11:34:29.190Z,24.28
2022-09-11T11:37:13.242Z,24.53
2022-09-11T11:39:47.652Z,24.62
2022-09-11T11:42:17.330Z,24.71
2022-09-11T11:44:52.332Z,24.05
2022-09-11T11:47:20.969Z,23.54
2022-09-11T11:49:51.684Z,23.82
2022-09-11T11:52:31.277Z,23.56
2022-09-11T11:55:03.089Z,23.78
2022-09-11T11:57:33.166Z,24.04
2022-09-11T12:00:04.172Z,23.96
2022-09-11T12:02:43.758Z,23.85
2022-09-11T12:05:12.064Z,23.75
2022-09-11T12:07:39.371Z,23.70
2022-09-11T12:10:07.464Z,23.89
2022-09-11T12:12:35.647Z,23.38
2022-09-11T12:15:06.970Z,23.00
2022-09-11T12:17:34.981Z,23.06
2022-09-11T12:20:11.625Z,22.62
2022-09-11T12:22:49.724Z,22.07
2022-09-11T12:25:20.010Z,22.18
2022-09-11T12:27:54.419Z,21.51
2022-09-11T12:30:23.431Z,21.02
2022-09-11T12:32:51.205Z,21.25
2022-09-11T12:35:38.265Z,21.80
2022-09-11T12:38:13.352Z,21.85
2022-09-11T12:40:57.350Z,22.08
2022-09-11T12:43:45.720Z,22.33
2022-09-11T12:46:21.856Z,22.17
2022-09-11T12:49:11.391Z,22.04
2022-09-11T12:51:42.363Z,22.09
2022-09-11T12:54:21.960Z,22.35
2022-09-11T12:57:08.053Z,22.39
2022-09-11T12:59:39.724Z,22.75
2022-09-11T13:02:25.962Z,22.74
2022-09-11T13:04:53.881Z,22.86
2022-09-11T13:07:30.328Z,22.59
2022-09-11T13:09:58.564Z,21.96
2022-09-11T13:12:25.861Z,21.99
2022-09-11T13:14:53.801Z,22.02
2022-09-11T13:17:25.974Z,21.91
2022-09-11T13:19:54.635Z,22.04
2022-09-11T13:22:25.213Z,21.42
2022-09-11T13:24:57.651Z,21.57
2022-09-11T13:27:26.577Z,21.25
2022-09-11T13:29:54.977Z,21.75
2022-09-11T13:32:22.510Z,21.18
2022-09-11T13:34:50.572Z,21.74
2022-09-11T13:37:45.561Z,21.93
2022-09-11T13:40:22.426Z,21.60
2022-09-11T13:42:50.035Z,21.90
2022-09-11T13:45:19.046Z,22.11
2022-09-11T13:47:46.458Z,22.33
2022-09-11T13:50:14.701Z,22.07
2022-09-11T13:52:43.137Z,22.13
2022-09-11T13:55:11.991Z,22.39
2022-09-11T13:57:51.605Z,22.15
2022-09-11T14:00:38.733Z,22.58
2022-09-11T14:03:07.014Z,22.61
2022-09-11T14:05:35.117Z,22.50
2022-09-11T14:08:02.495Z,22.84
2022-09-11T14:10:34.465Z,22.76
2022-09-11T14:13:05.135Z,22.96
2022-09-11T14:15:35.341Z,22.40
2022-09-11T14:18:02.901Z,22.81
2022-09-11T14:20:30.295Z,22.44
2022-09-11T14:22:59.647Z,22.58
2022-09-11T14:25:26.906Z,23.05
2022-09-11T14:27:54.157Z,22.96
2022-09-11T14:30:30.658Z,23.15
2022-09-11T14:33:19.321Z,23.15
2022-09-11T14:35:47.025Z,23.67
2022-09-11T14:38:14.561Z,23.15
2022-09-11T14:40:47.837Z,23.67
2022-09-11T14:43:17.575Z,23.55
2022-09-11T14:45:44.871Z,23.41
2022-09-11T14:48:12.325Z,23.22
2022-09-11T14:50:39.868Z,23.57
2022-09-11T14:53:09.515Z,23.44
2022-09-11T14:55:36.742Z,23.60
2022-09-11T14:58:04.233Z,23.40
2022-09-11T15:00:31.877Z,23.70
2022-09-11T15:03:00.368Z,23.69
2022-09-11T15:05:28.149Z,23.78
2022-09-11T15:07:55.897Z,24.18
2022-09-11T15:10:23.152Z,23.99
2022-09-11T15:12:50.693Z,23.82
2022-09-11T15:15:19.265Z,24.10
2022-09-11T15:17:46.553Z,24.34
2022-09-11T15:20:14.121Z,23.73
2022-09-11T15:22:41.381Z,23.34
2022-09-11T15:25:08.646Z,23.71
2022-09-11T15:27:36.585Z,23.71
2022-09-11T15:30:04.331Z,23.94
2022-09-11T15:32:32.988Z,23.45
2022-09-11T15:35:00.825Z,23.95
2022-09-11T15:37:28.154Z,23.45
2022-09-11T15:39:55.792Z,23.57
2022-09-11T15:42:23.466Z,22.75
2022-09-11T15:44:51.401Z,22.85
2022-09-11T15:47:18.638Z,23.01
2022-09-11T15:49:47.917Z,22.91
2022-09-11T15:52:15.256Z,23.06
2022-09-11T15:54:42.909Z,23.47
2022-09-11T15:57:10.455Z,23.00
2022-09-11T15:59:37.719Z,23.50
2022-09-11T16:02:05.078Z,22.88
2022-09-11T16:04:33.388Z,23.32
2022-09-11T16:07:00.805Z,23.47
2022-09-11T16:09:29.190Z,23.04
2022-09-11T16:11:59.395Z,22.97
2022-09-11T16:14:29.228Z,23.04
2022-09-11T16:16:57.979Z,22.54
2022-09-11T16:19:27.983Z,22.98
2022-09-11T16:22:00.538Z,22.71
2022-09-11T16:24:28.692Z,23.12
2022-09-11T16:26:56.198Z,22.65
2022-09-11T16:29:24.237Z,22.24
2022-09-11T16:31:51.794Z,22.56
2022-09-11T16:34:19.046Z,22.76
2022-09-11T16:36:46.446Z,22.74
2022-09-11T16:39:15.814Z,22.39
2022-09-11T16:41:43.473Z,22.93
2022-09-11T16:44:12.042Z,22.96
2022-09-11T16:46:40.805Z,22.73
2022-09-11T16:49:08.870Z,23.07
2022-09-11T16:51:36.125Z,22.53
2022-09-11T16:54:04.319Z,22.90
2022-09-11T16:56:31.724Z,22.84
2022-09-11T16:58:59.053Z,23.11
2022-09-11T17:01:27.035Z,22.14
2022-09-11T17:03:55.435Z,22.45
2022-09-11T17:06:24.073Z,22.54
2022-09-11T17:08:51.749Z,22.16
2022-09-11T17:11:20.105Z,22.34
2022-09-11T17:13:47.477Z,22.54
2022-09-11T17:16:25.645Z,22.64
2022-09-11T17:18:54.047Z,22.49
2022-09-11T17:21:24.129Z,22.66
2022-09-11T17:23:52.554Z,22.78
2022-09-11T17:26:19.895Z,22.75
2022-09-11T17:28:48.312Z,22.66
2022-09-11T17:31:16.345Z,22.72
2022-09-11T17:33:45.501Z,22.74
2022-09-11T17:36:14.765Z,22.76
2022-09-11T17:38:42.172Z,22.81
2022-09-11T17:41:09.542Z,22.62
2022-09-11T17:43:37.874Z,22.78
2022-09-11T17:46:06.379Z,22.50
2022-09-11T17:48:33.954Z,22.69
2022-09-11T17:51:02.690Z,22.54
2022-09-11T17:53:37.696Z,22.64
2022-09-11T17:56:07.230Z,22.66
2022-09-11T17:58:34.737Z,22.29
2022-09-11T18:01:02.920Z,22.42
2022-09-11T18:03:31.763Z,21.73
2022-09-11T18:05:59.328Z,21.87
2022-09-11T18:08:27.105Z,22.09
2022-09-11T18:10:59.739Z,22.33
2022-09-11T18:13:27.487Z,22.37
2022-09-11T18:15:56.391Z,21.49
2022-09-11T18:18:23.857Z,21.51
2022-09-11T18:20:54.084Z,21.37
2022-09-11T18:23:23.158Z,20.92
2022-09-11T18:25:51.464Z,21.15
2022-09-11T18:28:20.038Z,21.15
2022-09-11T18:30:49.385Z,20.93
2022-09-11T18:33:17.233Z,20.92
2022-09-11T18:35:46.653Z,20.69
2022-09-11T18:38:14.296Z,20.75
2022-09-11T18:40:41.565Z,20.66
2022-09-11T18:43:09.412Z,20.84
2022-09-11T18:45:37.065Z,21.03
2022-09-11T18:48:05.446Z,21.12
2022-09-11T18:50:32.734Z,21.00
2022-09-11T18:53:00.443Z,20.80
2022-09-11T18:55:29.085Z,21.39
2022-09-11T18:57:57.240Z,21.28
2022-09-11T19:00:24.760Z,21.10
2022-09-11T19:02:54.562Z,21.25
2022-09-11T19:05:21.785Z,20.88
2022-09-11T19:07:49.526Z,20.58
2022-09-11T19:10:17.268Z,20.90
2022-09-11T19:12:46.899Z,21.08
2022-09-11T19:15:14.450Z,20.49
2022-09-11T19:17:42.145Z,20.63
2022-09-11T19:20:11.158Z,20.75
2022-09-11T19:22:38.669Z,20.97
2022-09-11T19:25:08.042Z,20.55
2022-09-11T19:27:35.436Z,20.59
2022-09-11T19:30:03.626Z,21.02
2022-09-11T19:32:31.313Z,21.16
2022-09-11T19:35:00.219Z,21.00
2022-09-11T19:37:28.480Z,21.04
2022-09-11T19:39:57.221Z,21.06
2022-09-11T19:42:25.051Z,20.94
2022-09-11T19:44:56.210Z,21.10
2022-09-11T19:47:25.030Z,20.79
2022-09-11T19:49:52.970Z,20.71
2022-09-11T19:52:20.277Z,20.76
2022-09-11T19:54:47.537Z,20.86
2022-09-11T19:57:15.059Z,20.74
2022-09-11T19:59:42.353Z,20.43
2022-09-11T20:02:10.022Z,20.15
2022-09-11T20:04:37.601Z,20.37
2022-09-11T20:07:05.511Z,20.04
2022-09-11T20:09:33.046Z,20.13
2022-09-11T20:12:01.537Z,20.20
2022-09-11T20:14:29.591Z,20.22
2022-09-11T20:16:56.862Z,20.15
2022-09-11T20:19:24.364Z,20.15
2022-09-11T20:21:51.685Z,19.62
2022-09-11T20:24:19.821Z,19.99
2022-09-11T20:26:47.361Z,20.27
2022-09-11T20:29:15.252Z,20.32
2022-09-11T20:31:47.354Z,20.31
2022-09-11T20:34:15.999Z,20.19
2022-09-11T20:36:43.304Z,20.01
2022-09-11T20:39:11.094Z,20.19
2022-09-11T20:41:39.335Z,19.99
2022-09-11T20:44:06.646Z,20.60
2022-09-11T20:46:33.909Z,20.75
2022-09-11T20:49:03.029Z,20.82
2022-09-11T20:51:31.011Z,20.55
2022-09-11T20:53:58.286Z,20.74
2022-09-11T20:56:25.839Z,20.81
2022-09-11T20:58:53.122Z,20.78
2022-09-11T21:01:21.456Z,20.11
2022-09-11T21:03:50.146Z,20.58
2022-09-11T21:06:20.052Z,20.78
2022-09-11T21:08:51.402Z,20.34
2022-09-11T21:11:18.869Z,20.12
2022-09-11T21:13:46.323Z,19.76
2022-09-11T21:16:14.663Z,20.09
2022-09-11T21:18:45.891Z,20.43
2022-09-11T21:21:13.430Z,20.44
2022-09-11T21:23:40.690Z,20.36
2022-09-11T21:26:11.545Z,20.25
2022-09-11T21:28:39.168Z,20.48
2022-09-11T21:31:06.636Z,20.32
2022-09-11T21:33:34.270Z,20.70
2022-09-11T21:36:01.890Z,20.51
2022-09-11T21:38:29.629Z,20.46
2022-09-11T21:40:57.563Z,20.18
2022-09-11T21:43:25.341Z,20.72
2022-09-11T21:45:52.667Z,20.61
2022-09-11T21:48:19.907Z,20.57
2022-09-11T21:50:47.479Z,20.74
2022-09-11T21:53:14.793Z,20.77
2022-09-11T21:55:43.275Z,20.57
2022-09-11T21:58:20.261Z,20.40
2022-09-11T22:00:48.338Z,20.60
2022-09-11T22:03:16.713Z,20.77
2022-09-11T22:05:45.087Z,19.83
2022-09-11T22:08:13.242Z,20.47
2022-09-11T22:10:47.814Z,20.46
2022-09-11T22:13:15.480Z,20.01
2022-09-11T22:15:43.719Z,19.83
2022-09-11T22:18:11.016Z,19.92
2022-09-11T22:20:38.537Z,20.00
2022-09-11T22:23:06.176Z,19.99
2022-09-11T22:25:36.662Z,19.71
2022-09-11T22:28:04.336Z,19.96
2022-09-11T22:30:32.119Z,19.59
2022-09-11T22:33:00.038Z,19.71
2022-09-11T22:35:28.850Z,20.27
2022-09-11T22:37:56.393Z,20.44
2022-09-11T22:40:23.754Z,20.18
2022-09-11T22:42:51.664Z,19.99
2022-09-11T22:45:23.233Z,19.18
2022-09-11T22:47:50.469Z,19.70
2022-09-11T22:50:17.909Z,19.45
2022-09-11T22:52:45.485Z,20.02
2022-09-11T22:55:12.713Z,20.36
2022-09-11T22:57:40.118Z,20.48
2022-09-11T23:00:10.326Z,19.98
2022-09-11T23:02:38.120Z,19.56
2022-09-11T23:05:24.312Z,19.98
2022-09-11T23:07:52.191Z,19.83
2022-09-11T23:10:23.729Z,20.05
2022-09-11T23:12:51.654Z,20.07
2022-09-11T23:15:19.305Z,20.25
2022-09-11T23:17:46.962Z,20.01
2022-09-11T23:20:14.210Z,20.04
2022-09-11T23:22:41.807Z,19.79
2022-09-11T23:25:09.281Z,19.96
2022-09-11T23:27:36.547Z,19.61
2022-09-11T23:30:04.455Z,19.53
2022-09-11T23:32:31.745Z,19.50
2022-09-11T23:34:59.013Z,19.33
2022-09-11T23:37:26.574Z,19.08
2022-09-11T23:39:53.828Z,19.20
2022-09-11T23:42:21.102Z,18.72
2022-09-11T23:44:48.576Z,19.05
2022-09-11T23:47:15.992Z,19.18
2022-09-11T23:49:43.708Z,18.87
2022-09-11T23:52:11.167Z,18.24
2022-09-11T23:54:38.388Z,18.48
2022-09-11T23:57:05.872Z,18.34
2022-09-11T23:59:36.095Z,18.50
